Time;durP1;ratioP1;P1;durP2;ratioP2;P2;SDS_P1;SDS_P2;PMS_P1;PMS_P2;Temp;Humidity;BMP_temperature;BMP_pressure;BME280_temperature;BME280_humidity;BME280_pressure;Samples;Min_cycle;Max_cycle;Signal;HPM_P1;HPM_P2
2021/11/15 00:03:00;;;;;;;52.9;64.4;;;;;;;6.2;81.5;99840;;;;
2021/11/15 00:14:00;;;;;;;52.9;64.4;;;;;;;6.2;81.1;99840;;;;
2021/11/15 00:25:00;;;;;;;52.9;64.4;;;;;;;5.9;81.5;99850;;;;
2021/11/15 00:36:00;;;;;;;50.1;57.7;;;;;;;5.8;82;99850;;;;
2021/11/15 00:46:00;;;;;;;50.1;57.7;;;;;;;5.6;82.3;99860;;;;
2021/11/15 00:57:00;;;;;;;50.1;57.7;;;;;;;5.6;82.1;99850;;;;
2021/11/15 01:07:01;;;;;;;45.9;63;;;;;;;5.6;81.9;99850;;;;
2021/11/15 01:18:00;;;;;;;45.9;63;;;;;;;5.6;81.7;99860;;;;
2021/11/15 01:28:00;;;;;;;45.9;63;;;;;;;5.6;81.8;99870;;;;
2021/11/15 01:38:00;;;;;;;41.4;53.8;;;;;;;5.5;81.7;99880;;;;
2021/11/15 01:49:01;;;;;;;41.4;53.8;;;;;;;5.5;82;99890;;;;
2021/11/15 02:00:00;;;;;;;41.4;53.8;;;;;;;5.4;82.2;99890;;;;
2021/11/15 02:10:00;;;;;;;41.7;56;;;;;;;5.5;82;99880;;;;
2021/11/15 02:20:00;;;;;;;41.7;56;;;;;;;5.4;82.1;99890;;;;
2021/11/15 02:31:00;;;;;;;41.7;56;;;;;;;5.4;81.7;99900;;;;
2021/11/15 02:41:00;;;;;;;43.6;57.5;;;;;;;5.4;81.7;99900;;;;
2021/11/15 02:52:00;;;;;;;43.6;57.5;;;;;;;5.3;82.1;99900;;;;
2021/11/15 03:02:01;;;;;;;44.5;58.2;;;;;;;5.3;82.2;99900;;;;
2021/11/15 03:13:00;;;;;;;44.5;58.2;;;;;;;5.5;81.7;99910;;;;
2021/11/15 03:23:00;;;;;;;44.5;58.2;;;;;;;5.6;81.4;99920;;;;
2021/11/15 03:34:01;;;;;;;41.3;53.5;;;;;;;5.4;81.8;99910;;;;
2021/11/15 03:44:01;;;;;;;41.3;53.5;;;;;;;5.1;82.4;99910;;;;
2021/11/15 03:55:00;;;;;;;41.3;53.5;;;;;;;5.2;82.5;99920;;;;
2021/11/15 04:05:03;;;;;;;40.1;49.7;;;;;;;5.1;82.9;99920;;;;
2021/11/15 04:15:01;;;;;;;40.1;49.7;;;;;;;5.2;82.5;99910;;;;
2021/11/15 04:26:00;;;;;;;40.1;49.7;;;;;;;5.2;82.6;99910;;;;
2021/11/15 04:37:01;;;;;;;41.9;52.9;;;;;;;5;82.9;99900;;;;
2021/11/15 04:48:00;;;;;;;41.9;52.9;;;;;;;5;82.9;99900;;;;
2021/11/15 04:58:00;;;;;;;41.9;52.9;;;;;;;4.9;82.9;99910;;;;
2021/11/15 05:08:00;;;;;;;37.4;47.4;;;;;;;5.1;82.5;99900;;;;
2021/11/15 05:18:01;;;;;;;37.4;47.4;;;;;;;4.9;83;99900;;;;
2021/11/15 05:28:00;;;;;;;37.4;47.4;;;;;;;4.9;83.2;99900;;;;
2021/11/15 05:39:00;;;;;;;36.9;47.4;;;;;;;4.9;82.9;99910;;;;
2021/11/15 05:50:00;;;;;;;36.9;47.4;;;;;;;5.2;82.3;99920;;;;
2021/11/15 06:00:00;;;;;;;36.9;47.4;;;;;;;5.2;81.9;99920;;;;
2021/11/15 06:11:00;;;;;;;33.8;38.5;;;;;;;5.4;81.4;99930;;;;
2021/11/15 06:22:01;;;;;;;33.8;38.5;;;;;;;5.4;81.3;99930;;;;
2021/11/15 06:33:01;;;;;;;36.5;51.9;;;;;;;5.4;81.2;99940;;;;
2021/11/15 06:44:00;;;;;;;36.5;51.9;;;;;;;5.5;81.2;99940;;;;
2021/11/15 06:54:01;;;;;;;36.5;51.9;;;;;;;5.7;80.7;99940;;;;
2021/11/15 07:04:01;;;;;;;41.1;54.4;;;;;;;5.7;80.6;99950;;;;
2021/11/15 07:15:01;;;;;;;41.1;54.4;;;;;;;5.5;81;99950;;;;
2021/11/15 07:26:00;;;;;;;41.1;54.4;;;;;;;5.7;80.4;99960;;;;
2021/11/15 07:36:00;;;;;;;43.7;56;;;;;;;5.8;80.2;99950;;;;
2021/11/15 07:46:01;;;;;;;43.7;56;;;;;;;5.7;80.6;99960;;;;
2021/11/15 07:56:00;;;;;;;43.7;56;;;;;;;5.9;80.4;99950;;;;
2021/11/15 08:07:01;;;;;;;41.5;53;;;;;;;5.9;80.3;99960;;;;
2021/11/15 08:18:03;;;;;;;41.5;53;;;;;;;6.1;79.8;99960;;;;
2021/11/15 08:28:01;;;;;;;41.5;53;;;;;;;6.1;79.6;99970;;;;
2021/11/15 08:38:01;;;;;;;37.8;48.4;;;;;;;6.4;78.5;99960;;;;
2021/11/15 08:49:00;;;;;;;37.8;48.4;;;;;;;6.6;78.7;99980;;;;
2021/11/15 08:59:01;;;;;;;37.8;48.4;;;;;;;6.8;77.4;99980;;;;
2021/11/15 09:01:01;;;;;;;37.1;47.4;;;;;;;6.9;77.1;99970;;;;
2021/11/15 09:11:01;;;;;;;37.1;47.4;;;;;;;6.7;77.3;99970;;;;
2021/11/15 09:22:00;;;;;;;37.1;47.4;;;;;;;6.6;77.7;99970;;;;
2021/11/15 09:32:01;;;;;;;36;44;;;;;;;6.5;77.9;99970;;;;
2021/11/15 09:42:01;;;;;;;36;44;;;;;;;6.5;78.1;99970;;;;
2021/11/15 09:53:01;;;;;;;36;44;;;;;;;6.3;78.9;99970;;;;
2021/11/15 10:04:01;;;;;;;40.6;50.9;;;;;;;6.4;78.7;99960;;;;
2021/11/15 10:14:01;;;;;;;40.6;50.9;;;;;;;6.6;78.8;99970;;;;
2021/11/15 10:25:01;;;;;;;40.6;50.9;;;;;;;6.8;78.1;99950;;;;
2021/11/15 10:35:01;;;;;;;40;47.5;;;;;;;6.9;77.2;99950;;;;
2021/11/15 10:46:01;;;;;;;40;47.5;;;;;;;6.9;77.3;99950;;;;
2021/11/15 10:57:01;;;;;;;40;47.5;;;;;;;6.7;78.1;99960;;;;
2021/11/15 11:07:02;;;;;;;41.1;56.6;;;;;;;6.9;78.1;99960;;;;
2021/11/15 11:17:01;;;;;;;41.1;56.6;;;;;;;6.9;78.1;99950;;;;
2021/11/15 11:28:01;;;;;;;41.1;56.6;;;;;;;6.9;78.6;99950;;;;
2021/11/15 11:39:02;;;;;;;40.5;50.7;;;;;;;6.6;79.6;99950;;;;
2021/11/15 11:49:02;;;;;;;40.5;50.7;;;;;;;6.3;80.5;99960;;;;
2021/11/15 12:00:01;;;;;;;42;62.5;;;;;;;6.4;81;99950;;;;
2021/11/15 12:10:01;;;;;;;42;62.5;;;;;;;6.5;80.8;99950;;;;
2021/11/15 12:21:01;;;;;;;42;62.5;;;;;;;6.4;80.5;99950;;;;
2021/11/15 12:31:01;;;;;;;47.5;68.7;;;;;;;6.4;80.6;99950;;;;
2021/11/15 12:42:01;;;;;;;47.5;68.7;;;;;;;6.4;80.9;99950;;;;
2021/11/15 12:52:01;;;;;;;47.5;68.7;;;;;;;6.3;81.5;99940;;;;
2021/11/15 13:02:01;;;;;;;50.1;64.7;;;;;;;6.4;81.3;99950;;;;
2021/11/15 13:13:01;;;;;;;50.1;64.7;;;;;;;6.2;81.8;99950;;;;
2021/11/15 13:24:01;;;;;;;50.1;64.7;;;;;;;6.4;81.7;99940;;;;
2021/11/15 13:34:01;;;;;;;59;81;;;;;;;6.4;81.7;99940;;;;
2021/11/15 13:44:01;;;;;;;59;81;;;;;;;6.4;81.7;99930;;;;
2021/11/15 13:55:02;;;;;;;59;81;;;;;;;6.5;81.7;99950;;;;
2021/11/15 14:05:01;;;;;;;67.2;99;;;;;;;6.5;81.9;99940;;;;
2021/11/15 14:15:01;;;;;;;67.2;99;;;;;;;6.4;82.2;99940;;;;
2021/11/15 14:26:01;;;;;;;67.2;99;;;;;;;6.5;81.9;99940;;;;
2021/11/15 14:36:01;;;;;;;63.6;96.2;;;;;;;6.4;82.1;99950;;;;
2021/11/15 14:47:01;;;;;;;63.6;96.2;;;;;;;6.5;81.5;99940;;;;
2021/11/15 14:57:01;;;;;;;63.6;96.2;;;;;;;6.6;81.1;99950;;;;
2021/11/15 15:07:01;;;;;;;53.3;68.1;;;;;;;6.6;81;99950;;;;
2021/11/15 15:17:02;;;;;;;53.3;68.1;;;;;;;6.5;80.8;99950;;;;
2021/11/15 15:28:03;;;;;;;53.3;68.1;;;;;;;6.4;80.6;99960;;;;
2021/11/15 15:39:01;;;;;;;49.8;66.2;;;;;;;6.5;80.5;99960;;;;
2021/11/15 15:50:01;;;;;;;49.8;66.2;;;;;;;6.7;79.8;99960;;;;
2021/11/15 16:00:01;;;;;;;50.9;66.2;;;;;;;6.7;79.8;99950;;;;
2021/11/15 16:22:01;;;;;;;50.9;66.2;;;;;;;6.8;79.5;99960;;;;
2021/11/15 16:32:01;;;;;;;51.2;73.8;;;;;;;6.8;79.5;99960;;;;
2021/11/15 16:43:01;;;;;;;51.2;73.8;;;;;;;6.9;79.2;99960;;;;
2021/11/15 16:53:01;;;;;;;51.2;73.8;;;;;;;7;78.9;99970;;;;
2021/11/15 17:03:04;;;;;;;53.4;69.2;;;;;;;6.9;78.9;99970;;;;
2021/11/15 17:14:01;;;;;;;53.4;69.2;;;;;;;7;78.9;99980;;;;
2021/11/15 17:24:01;;;;;;;53.4;69.2;;;;;;;6.9;78.8;99980;;;;
2021/11/15 17:35:01;;;;;;;58;77.8;;;;;;;7;78.8;99980;;;;
2021/11/15 17:45:01;;;;;;;58;77.8;;;;;;;6.9;79;99980;;;;
2021/11/15 17:56:05;;;;;;;58;77.8;;;;;;;6.9;78.9;99970;;;;
2021/11/15 18:06:01;;;;;;;54.8;68.8;;;;;;;6.9;79;99960;;;;
2021/11/15 18:16:03;;;;;;;54.8;68.8;;;;;;;6.9;79.1;99960;;;;
2021/11/15 18:27:01;;;;;;;54.8;68.8;;;;;;;7;78.7;99960;;;;
2021/11/15 18:38:01;;;;;;;59.3;74;;;;;;;7.1;78.6;99960;;;;
2021/11/15 18:48:01;;;;;;;59.3;74;;;;;;;7;78.6;99960;;;;
2021/11/15 18:58:01;;;;;;;59.3;74;;;;;;;6.8;78.9;99960;;;;
2021/11/15 19:09:03;;;;;;;54.9;63.9;;;;;;;7;78.6;99950;;;;
2021/11/15 19:19:01;;;;;;;54.9;63.9;;;;;;;7;78.5;99960;;;;
2021/11/15 19:29:03;;;;;;;53.7;61.7;;;;;;;7.1;77.9;99960;;;;
2021/11/15 19:39:01;;;;;;;53.7;61.7;;;;;;;7.2;77.8;99960;;;;
2021/11/15 19:50:04;;;;;;;53.7;61.7;;;;;;;7.2;77.5;99960;;;;
2021/11/15 20:00:01;;;;;;;52.5;67.6;;;;;;;7;77.6;99970;;;;
2021/11/15 20:11:01;;;;;;;52.5;67.6;;;;;;;7.1;77.6;99960;;;;
2021/11/15 20:22:01;;;;;;;52.5;67.6;;;;;;;7.1;77.4;99970;;;;
2021/11/15 20:33:01;;;;;;;51;60.9;;;;;;;7;77.3;99970;;;;
2021/11/15 20:43:01;;;;;;;51;60.9;;;;;;;7.1;77.1;99970;;;;
2021/11/15 20:53:01;;;;;;;51;60.9;;;;;;;7;77.4;99960;;;;
2021/11/15 21:03:01;;;;;;;46.5;54;;;;;;;6.9;77.9;99950;;;;
2021/11/15 21:13:01;;;;;;;46.5;54;;;;;;;7;77.2;99950;;;;
2021/11/15 21:23:04;;;;;;;46.5;54;;;;;;;6.9;77.1;99940;;;;
2021/11/15 21:33:01;;;;;;;35.4;44.6;;;;;;;7.1;76.7;99930;;;;
2021/11/15 21:43:01;;;;;;;35.4;44.6;;;;;;;7.1;76.4;99930;;;;
2021/11/15 21:54:01;;;;;;;35.4;44.6;;;;;;;7.1;76.6;99930;;;;
2021/11/15 22:04:05;;;;;;;40;48.4;;;;;;;7.2;76.4;99930;;;;
2021/11/15 22:14:04;;;;;;;40;48.4;;;;;;;7.1;76.1;99930;;;;
2021/11/15 22:24:01;;;;;;;40;48.4;;;;;;;7.2;76.2;99930;;;;
2021/11/15 22:34:01;;;;;;;32.3;38.6;;;;;;;7.2;76.1;99930;;;;
2021/11/15 22:44:01;;;;;;;32.3;38.6;;;;;;;7.3;76.1;99920;;;;
2021/11/15 22:54:01;;;;;;;32.3;38.6;;;;;;;7.3;75.7;99920;;;;
2021/11/15 23:04:01;;;;;;;29.9;36.2;;;;;;;7.3;75.8;99920;;;;
2021/11/15 23:15:01;;;;;;;29.9;36.2;;;;;;;7.3;75.5;99920;;;;
2021/11/15 23:25:01;;;;;;;29.9;36.2;;;;;;;7.3;75.6;99900;;;;
2021/11/15 23:36:01;;;;;;;30.2;36.2;;;;;;;7.4;75.4;99910;;;;
2021/11/15 23:46:07;;;;;;;30.2;36.2;;;;;;;7.1;75.4;99900;;;;
2021/11/15 23:56:01;;;;;;;30.2;36.2;;;;;;;7;75.7;99900;;;;
